createdAt,value
2019-04-26T00:01:38.961Z,12.70
2019-04-26T00:04:10.669Z,12.58
2019-04-26T00:06:39.844Z,12.54
2019-04-26T00:09:38.428Z,12.20
2019-04-26T00:12:20.133Z,11.55
2019-04-26T00:15:08.298Z,11.53
2019-04-26T00:17:45.926Z,11.55
2019-04-26T00:20:17.433Z,11.62
2019-04-26T00:22:47.248Z,11.45
2019-04-26T00:25:16.658Z,11.45
2019-04-26T00:27:45.886Z,11.49
2019-04-26T00:30:16.981Z,11.52
2019-04-26T00:32:46.574Z,11.44
2019-04-26T00:35:15.773Z,11.61
2019-04-26T00:37:45.645Z,11.22
2019-04-26T00:40:16.591Z,10.84
2019-04-26T00:42:46.544Z,10.56
2019-04-26T00:45:16.770Z,10.40
2019-04-26T00:47:46.974Z,10.71
2019-04-26T00:50:17.162Z,10.14
2019-04-26T00:52:47.210Z,10.39
2019-04-26T00:55:23.878Z,10.69
2019-04-26T00:57:53.473Z,10.92
2019-04-26T01:00:23.825Z,10.77
2019-04-26T01:02:55.920Z,10.76
2019-04-26T01:05:27.891Z,10.89
2019-04-26T01:07:57.651Z,10.87
2019-04-26T01:10:29.352Z,10.66
2019-04-26T01:13:01.089Z,10.77
2019-04-26T01:15:31.279Z,10.84
2019-04-26T01:18:01.248Z,10.98
2019-04-26T01:20:33.659Z,11.21
2019-04-26T01:23:10.210Z,11.32
2019-04-26T01:25:48.439Z,11.48
2019-04-26T01:28:30.004Z,11.45
2019-04-26T01:31:02.166Z,11.20
2019-04-26T01:33:34.761Z,11.39
2019-04-26T01:36:12.790Z,11.07
2019-04-26T01:38:36.653Z,10.91
2019-04-26T01:41:12.456Z,10.81
2019-04-26T01:44:18.302Z,10.43
2019-04-26T01:46:50.501Z,10.21
2019-04-26T01:49:24.825Z,10.34
2019-04-26T01:52:05.770Z,10.64
2019-04-26T01:54:41.669Z,10.75
2019-04-26T01:57:12.623Z,10.95
2019-04-26T01:59:52.300Z,11.00
2019-04-26T02:02:36.528Z,10.85
2019-04-26T02:05:12.737Z,11.00
2019-04-26T02:07:46.890Z,11.06
2019-04-26T02:10:20.055Z,11.05
2019-04-26T02:12:52.676Z,10.98
2019-04-26T02:15:29.284Z,11.02
2019-04-26T02:18:01.654Z,11.05
2019-04-26T02:21:22.055Z,10.71
2019-04-26T02:24:17.275Z,10.70
2019-04-26T02:26:49.968Z,10.56
2019-04-26T02:29:25.264Z,10.63
2019-04-26T02:32:00.495Z,10.61
2019-04-26T02:34:38.064Z,10.69
2019-04-26T02:37:10.723Z,10.59
2019-04-26T02:39:41.697Z,10.50
2019-04-26T02:42:20.320Z,10.55
2019-04-26T02:45:03.836Z,10.38
2019-04-26T02:48:15.564Z,10.42
2019-04-26T02:50:53.898Z,10.40
2019-04-26T02:54:06.905Z,10.45
2019-04-26T02:56:44.674Z,10.59
2019-04-26T02:59:42.756Z,10.40
2019-04-26T03:02:25.733Z,10.41
2019-04-26T03:05:06.139Z,10.32
2019-04-26T03:07:45.715Z,10.50
2019-04-26T03:10:16.325Z,10.48
2019-04-26T03:12:48.496Z,10.40
2019-04-26T03:15:33.916Z,10.41
2019-04-26T03:18:29.223Z,10.64
2019-04-26T03:21:03.647Z,10.69
2019-04-26T03:23:59.674Z,10.63
2019-04-26T03:27:10.526Z,10.71
2019-04-26T03:30:17.686Z,10.49
2019-04-26T03:32:57.393Z,10.65
2019-04-26T03:35:56.511Z,10.62
2019-04-26T03:38:45.999Z,10.68
2019-04-26T03:41:34.442Z,10.72
2019-04-26T03:44:22.618Z,10.56
2019-04-26T03:46:57.426Z,10.79
2019-04-26T03:50:22.970Z,10.71
2019-04-26T03:53:13.771Z,10.79
2019-04-26T03:56:16.824Z,10.77
2019-04-26T03:59:10.300Z,10.83
2019-04-26T04:01:52.543Z,10.77
2019-04-26T04:04:39.447Z,10.79
2019-04-26T04:07:13.778Z,10.75
2019-04-26T04:09:48.153Z,10.85
2019-04-26T04:12:39.776Z,10.80
2019-04-26T04:15:18.858Z,10.72
2019-04-26T04:17:55.467Z,10.84
2019-04-26T04:21:26.617Z,10.89
2019-04-26T04:24:07.769Z,11.02
2019-04-26T04:26:58.964Z,10.93
2019-04-26T04:29:57.661Z,11.00
2019-04-26T04:32:50.578Z,10.94
2019-04-26T04:35:25.267Z,10.76
2019-04-26T04:38:09.217Z,10.92
2019-04-26T04:41:08.504Z,11.06
2019-04-26T04:43:45.196Z,11.06
2019-04-26T04:47:24.791Z,11.08
2019-04-26T04:50:23.043Z,11.03
2019-04-26T04:53:20.736Z,10.78
2019-04-26T04:56:12.064Z,10.78
2019-04-26T04:58:50.191Z,10.94
2019-04-26T05:01:53.843Z,10.87
2019-04-26T05:04:33.782Z,10.79
2019-04-26T05:07:30.634Z,11.03
2019-04-26T05:10:18.507Z,11.04
2019-04-26T05:12:58.196Z,10.93
2019-04-26T05:15:57.466Z,11.08
2019-04-26T05:19:23.739Z,11.20
2019-04-26T05:22:13.417Z,11.22
2019-04-26T05:25:40.550Z,11.25
2019-04-26T05:28:23.578Z,11.04
2019-04-26T05:31:36.172Z,11.00
2019-04-26T05:34:42.944Z,10.96
2019-04-26T05:37:53.282Z,10.91
2019-04-26T05:40:55.637Z,10.78
2019-04-26T05:44:12.970Z,10.85
2019-04-26T05:47:14.717Z,11.04
2019-04-26T05:50:45.443Z,11.16
2019-04-26T05:54:13.850Z,11.27
2019-04-26T05:56:54.309Z,10.94
2019-04-26T05:59:56.797Z,11.17
2019-04-26T06:03:16.526Z,11.01
2019-04-26T06:06:24.297Z,11.12
2019-04-26T06:09:42.637Z,10.84
2019-04-26T06:12:41.550Z,11.14
2019-04-26T06:15:42.141Z,11.00
2019-04-26T06:19:09.865Z,11.10
2019-04-26T06:22:15.348Z,11.15
2019-04-26T06:25:33.453Z,11.26
2019-04-26T06:28:26.008Z,11.34
2019-04-26T06:31:12.148Z,11.28
2019-04-26T06:34:13.101Z,11.19
2019-04-26T06:37:29.069Z,11.35
2019-04-26T06:40:46.875Z,11.24
2019-04-26T06:43:47.354Z,11.29
2019-04-26T06:47:10.744Z,11.11
2019-04-26T06:50:18.379Z,11.17
2019-04-26T06:52:58.046Z,10.97
2019-04-26T06:55:42.081Z,10.99
2019-04-26T06:58:31.920Z,10.87
2019-04-26T07:01:13.063Z,10.98
2019-04-26T07:04:18.007Z,11.09
2019-04-26T07:07:21.461Z,10.94
2019-04-26T07:10:29.735Z,11.01
2019-04-26T07:13:51.373Z,11.02
2019-04-26T07:16:45.779Z,10.86
2019-04-26T07:20:01.435Z,10.70
2019-04-26T07:22:55.257Z,10.79
2019-04-26T07:25:59.194Z,10.88
2019-04-26T07:29:04.704Z,10.76
2019-04-26T07:31:53.860Z,10.72
2019-04-26T07:35:13.274Z,10.81
2019-04-26T07:38:48.469Z,10.86
2019-04-26T07:41:55.742Z,10.84
2019-04-26T07:44:58.406Z,10.97
2019-04-26T07:48:19.691Z,10.94
2019-04-26T07:51:31.088Z,10.99
2019-04-26T07:54:58.896Z,10.91
2019-04-26T07:58:22.990Z,10.82
2019-04-26T08:01:15.930Z,10.79
2019-04-26T08:04:00.233Z,10.76
2019-04-26T08:06:52.787Z,10.74
2019-04-26T08:09:27.743Z,10.75
2019-04-26T08:12:08.029Z,10.77
2019-04-26T08:14:48.054Z,10.70
2019-04-26T08:17:46.133Z,10.64
2019-04-26T08:20:48.311Z,10.44
2019-04-26T08:23:38.450Z,10.41
2019-04-26T08:26:00.925Z,10.16
2019-04-26T08:28:35.083Z,10.39
2019-04-26T08:31:09.450Z,10.27
2019-04-26T08:33:48.800Z,10.31
2019-04-26T08:36:23.182Z,10.29
2019-04-26T08:38:52.630Z,10.40
2019-04-26T08:41:24.201Z,10.53
2019-04-26T08:44:25.529Z,10.58
2019-04-26T08:47:26.311Z,10.30
2019-04-26T08:50:12.186Z,10.59
2019-04-26T08:52:43.174Z,10.73
2019-04-26T08:55:15.432Z,10.79
2019-04-26T08:57:48.989Z,10.90
2019-04-26T09:00:33.992Z,10.95
2019-04-26T09:03:15.524Z,10.76
2019-04-26T09:06:00.820Z,10.88
2019-04-26T09:08:39.405Z,10.73
2019-04-26T09:11:23.762Z,10.79
2019-04-26T09:13:46.561Z,11.07
2019-04-26T09:16:19.669Z,11.20
2019-04-26T09:18:54.124Z,10.97
2019-04-26T09:21:29.500Z,11.00
2019-04-26T09:24:25.073Z,11.06
2019-04-26T09:27:00.458Z,11.21
2019-04-26T09:29:40.679Z,11.46
2019-04-26T09:32:16.175Z,11.04
2019-04-26T09:34:45.450Z,11.17
2019-04-26T09:37:14.936Z,11.28
2019-04-26T09:39:47.431Z,11.26
2019-04-26T09:42:24.704Z,11.10
2019-04-26T09:45:30.200Z,10.93
2019-04-26T09:48:07.995Z,11.08
2019-04-26T09:50:46.129Z,10.88
2019-04-26T09:53:19.854Z,10.87
2019-04-26T09:55:49.784Z,10.88
2019-04-26T09:58:19.576Z,11.04
2019-04-26T10:00:50.284Z,11.17
2019-04-26T10:03:22.519Z,11.17
2019-04-26T10:05:55.851Z,11.20
2019-04-26T10:08:25.022Z,11.30
2019-04-26T10:10:54.453Z,11.21
2019-04-26T10:13:42.676Z,11.01
2019-04-26T10:16:37.687Z,10.80
2019-04-26T10:19:10.873Z,11.13
2019-04-26T10:21:40.906Z,11.06
2019-04-26T10:24:10.863Z,11.10
2019-04-26T10:26:40.228Z,10.77
2019-04-26T10:29:09.694Z,10.92
2019-04-26T10:31:39.426Z,10.86
2019-04-26T10:34:11.787Z,11.02
2019-04-26T10:36:40.687Z,11.01
2019-04-26T10:39:13.555Z,11.16
2019-04-26T10:41:46.025Z,10.68
2019-04-26T10:44:41.179Z,10.89
2019-04-26T10:47:11.874Z,11.01
2019-04-26T10:49:42.761Z,10.87
2019-04-26T10:52:30.605Z,11.04
2019-04-26T10:55:23.526Z,10.95
2019-04-26T10:57:54.719Z,11.13
2019-04-26T11:00:36.532Z,10.99
2019-04-26T11:03:08.920Z,10.92
2019-04-26T11:05:40.164Z,11.14
2019-04-26T11:08:11.528Z,11.24
2019-04-26T11:10:48.572Z,10.94
2019-04-26T11:13:11.875Z,10.81
2019-04-26T11:15:42.230Z,10.91
2019-04-26T11:18:11.404Z,10.76
2019-04-26T11:20:41.518Z,10.79
2019-04-26T11:23:13.030Z,11.01
2019-04-26T11:25:42.494Z,10.93
2019-04-26T11:28:17.335Z,11.03
2019-04-26T11:30:47.975Z,10.95
2019-04-26T11:33:18.407Z,11.01
2019-04-26T11:35:47.654Z,10.93
2019-04-26T11:38:21.712Z,10.98
2019-04-26T11:41:05.758Z,10.95
2019-04-26T11:43:33.738Z,11.11
2019-04-26T11:46:04.652Z,11.14
2019-04-26T11:48:35.475Z,11.11
2019-04-26T11:51:05.018Z,11.16
2019-04-26T11:53:34.531Z,11.29
2019-04-26T11:56:05.595Z,11.12
2019-04-26T11:58:35.261Z,11.28
2019-04-26T12:01:06.861Z,11.26
2019-04-26T12:03:36.669Z,11.32
2019-04-26T12:06:25.636Z,11.35
2019-04-26T12:08:57.985Z,11.31
2019-04-26T12:11:34.126Z,11.45
2019-04-26T12:14:03.956Z,11.33
2019-04-26T12:16:33.383Z,11.33
2019-04-26T12:19:02.816Z,11.39
2019-04-26T12:21:34.131Z,11.57
2019-04-26T12:24:05.248Z,11.61
2019-04-26T12:26:43.086Z,11.55
2019-04-26T12:29:10.609Z,11.33
2019-04-26T12:31:41.713Z,11.31
2019-04-26T12:34:14.098Z,11.34
2019-04-26T12:36:43.783Z,11.36
2019-04-26T12:39:13.981Z,11.13
2019-04-26T12:41:43.800Z,11.16
2019-04-26T12:44:15.002Z,11.25
2019-04-26T12:47:03.563Z,11.36
2019-04-26T12:49:31.078Z,11.28
2019-04-26T12:52:00.347Z,11.28
2019-04-26T12:54:30.687Z,11.44
2019-04-26T12:57:01.563Z,11.34
2019-04-26T12:59:43.349Z,11.08
2019-04-26T13:02:05.758Z,11.24
2019-04-26T13:04:36.152Z,11.38
2019-04-26T13:07:23.504Z,11.44
2019-04-26T13:10:07.063Z,11.38
2019-04-26T13:12:48.330Z,11.50
2019-04-26T13:15:52.847Z,11.44
2019-04-26T13:18:22.065Z,11.53
2019-04-26T13:21:02.605Z,11.38
2019-04-26T13:23:29.829Z,11.44
2019-04-26T13:26:01.582Z,11.31
2019-04-26T13:28:32.062Z,11.09
2019-04-26T13:31:02.630Z,11.16
2019-04-26T13:33:32.229Z,11.22
2019-04-26T13:36:04.677Z,11.22
2019-04-26T13:38:34.176Z,11.31
2019-04-26T13:41:05.881Z,11.41
2019-04-26T13:43:35.070Z,11.42
2019-04-26T13:46:23.940Z,11.50
2019-04-26T13:49:18.143Z,11.33
2019-04-26T13:51:47.976Z,11.09
2019-04-26T13:54:21.057Z,11.01
2019-04-26T13:56:48.758Z,11.12
2019-04-26T13:59:17.940Z,11.20
2019-04-26T14:01:47.118Z,11.28
2019-04-26T14:04:16.825Z,11.04
2019-04-26T14:06:46.213Z,11.26
2019-04-26T14:09:16.017Z,11.12
2019-04-26T14:11:45.751Z,11.21
2019-04-26T14:14:15.347Z,11.26
2019-04-26T14:16:44.511Z,11.29
2019-04-26T14:19:15.569Z,11.38
2019-04-26T14:21:45.514Z,11.42
2019-04-26T14:24:39.796Z,11.70
2019-04-26T14:27:14.926Z,11.81
2019-04-26T14:29:44.504Z,12.18
2019-04-26T14:32:14.461Z,12.20
2019-04-26T14:34:45.270Z,12.14
2019-04-26T14:37:16.712Z,12.40
2019-04-26T14:39:50.458Z,12.15
2019-04-26T14:42:32.724Z,12.54
2019-04-26T14:44:50.323Z,13.13
2019-04-26T14:47:19.485Z,13.10
2019-04-26T14:49:53.349Z,13.31
2019-04-26T14:52:27.688Z,12.63
2019-04-26T14:54:55.698Z,12.96
2019-04-26T14:57:31.415Z,12.87
2019-04-26T14:59:59.413Z,12.82
2019-04-26T15:02:48.927Z,12.33
2019-04-26T15:05:22.320Z,12.48
2019-04-26T15:07:53.740Z,12.43
2019-04-26T15:10:25.176Z,12.32
2019-04-26T15:13:05.830Z,12.00
2019-04-26T15:15:26.880Z,11.93
2019-04-26T15:17:59.572Z,11.76
2019-04-26T15:20:27.624Z,11.95
2019-04-26T15:22:57.578Z,11.95
2019-04-26T15:25:27.037Z,11.86
2019-04-26T15:27:56.563Z,11.84
2019-04-26T15:30:25.781Z,11.89
2019-04-26T15:32:55.543Z,11.90
2019-04-26T15:35:28.321Z,12.10
2019-04-26T15:37:57.414Z,12.07
2019-04-26T15:40:45.565Z,12.19
2019-04-26T15:43:20.857Z,11.98
2019-04-26T15:46:18.096Z,11.90
2019-04-26T15:48:54.666Z,12.11
2019-04-26T15:51:27.551Z,12.13
2019-04-26T15:53:57.048Z,12.33
2019-04-26T15:56:28.138Z,12.41
2019-04-26T15:58:57.606Z,12.12
2019-04-26T16:01:26.940Z,12.27
2019-04-26T16:03:56.118Z,12.27
2019-04-26T16:06:25.588Z,12.34
2019-04-26T16:08:54.744Z,12.46
2019-04-26T16:11:23.908Z,12.47
2019-04-26T16:13:55.490Z,12.50
2019-04-26T16:16:27.937Z,12.47
2019-04-26T16:18:57.226Z,12.44
2019-04-26T16:21:26.027Z,12.27
2019-04-26T16:23:55.566Z,12.28
2019-04-26T16:26:26.543Z,12.29
2019-04-26T16:29:18.277Z,12.02
2019-04-26T16:32:06.915Z,11.93
2019-04-26T16:34:41.692Z,11.93
2019-04-26T16:37:09.838Z,12.27
2019-04-26T16:39:40.206Z,12.55
2019-04-26T16:42:09.453Z,12.69
2019-04-26T16:44:44.817Z,12.74
2019-04-26T16:47:13.108Z,12.82
2019-04-26T16:49:46.617Z,12.70
2019-04-26T16:52:16.238Z,12.73
2019-04-26T16:54:46.595Z,12.51
2019-04-26T16:57:24.469Z,12.47
2019-04-26T16:59:57.573Z,12.54
2019-04-26T17:02:27.903Z,12.62
2019-04-26T17:04:56.138Z,12.66
2019-04-26T17:07:27.376Z,12.55
2019-04-26T17:09:59.391Z,12.55
2019-04-26T17:12:27.397Z,12.66
2019-04-26T17:14:58.101Z,12.57
2019-04-26T17:17:27.707Z,12.49
2019-04-26T17:19:58.060Z,12.35
2019-04-26T17:22:56.043Z,12.39
2019-04-26T17:25:26.851Z,12.38
2019-04-26T17:27:55.192Z,12.39
2019-04-26T17:30:25.832Z,12.29
2019-04-26T17:32:58.995Z,12.27
2019-04-26T17:35:30.035Z,12.25
2019-04-26T17:38:02.068Z,12.23
2019-04-26T17:40:36.191Z,12.26
2019-04-26T17:43:01.292Z,12.14
2019-04-26T17:45:30.652Z,12.14
2019-04-26T17:48:01.424Z,12.03
2019-04-26T17:50:31.008Z,12.08
2019-04-26T17:53:00.659Z,11.96
2019-04-26T17:55:33.333Z,11.86
2019-04-26T17:58:11.890Z,11.74
2019-04-26T18:00:45.886Z,11.84
2019-04-26T18:03:11.651Z,11.94
2019-04-26T18:05:50.032Z,11.85
2019-04-26T18:08:33.585Z,11.77
2019-04-26T18:10:43.182Z,11.75
2019-04-26T18:13:16.296Z,11.75
2019-04-26T18:15:46.999Z,11.79
2019-04-26T18:18:36.546Z,11.66
2019-04-26T18:21:24.934Z,11.66
2019-04-26T18:23:57.187Z,11.58
2019-04-26T18:26:25.537Z,11.60
2019-04-26T18:28:55.435Z,11.52
2019-04-26T18:31:28.820Z,11.40
2019-04-26T18:34:00.661Z,11.39
2019-04-26T18:36:31.937Z,11.31
2019-04-26T18:39:03.862Z,11.28
2019-04-26T18:41:33.932Z,11.31
2019-04-26T18:44:03.288Z,11.20
2019-04-26T18:46:47.979Z,11.25
2019-04-26T18:49:22.483Z,11.22
2019-04-26T18:51:51.790Z,11.13
2019-04-26T18:54:39.043Z,11.16
2019-04-26T18:57:09.554Z,11.02
2019-04-26T18:59:39.597Z,10.97
2019-04-26T19:02:11.468Z,10.88
2019-04-26T19:04:47.934Z,10.81
2019-04-26T19:07:30.995Z,10.87
2019-04-26T19:10:00.732Z,10.88
2019-04-26T19:12:25.383Z,10.81
2019-04-26T19:15:12.397Z,10.81
2019-04-26T19:18:11.549Z,10.83
2019-04-26T19:20:55.180Z,10.83
2019-04-26T19:23:29.102Z,10.85
2019-04-26T19:25:56.741Z,10.97
2019-04-26T19:28:25.913Z,10.82
2019-04-26T19:30:55.110Z,10.87
2019-04-26T19:33:24.283Z,10.87
2019-04-26T19:35:53.555Z,10.84
2019-04-26T19:38:22.732Z,10.76
2019-04-26T19:40:56.105Z,10.79
2019-04-26T19:43:31.890Z,10.63
2019-04-26T19:46:12.766Z,10.73
2019-04-26T19:49:00.078Z,10.64
2019-04-26T19:52:00.545Z,10.60
2019-04-26T19:54:54.915Z,10.71
2019-04-26T19:57:39.227Z,10.63
2019-04-26T20:00:08.121Z,10.63
2019-04-26T20:02:39.290Z,10.58
2019-04-26T20:05:11.934Z,10.60
2019-04-26T20:07:43.475Z,10.56
2019-04-26T20:10:12.963Z,10.57
2019-04-26T20:12:42.477Z,10.65
2019-04-26T20:15:25.373Z,10.64
2019-04-26T20:17:44.122Z,10.63
2019-04-26T20:20:20.734Z,10.53
2019-04-26T20:22:44.278Z,10.47
2019-04-26T20:25:13.809Z,10.62
2019-04-26T20:27:43.007Z,10.65
2019-04-26T20:30:18.198Z,10.72
2019-04-26T20:32:47.420Z,10.64
2019-04-26T20:35:19.846Z,10.50
2019-04-26T20:37:49.377Z,10.62
2019-04-26T20:40:23.253Z,10.68
2019-04-26T20:42:51.231Z,10.77
2019-04-26T20:45:21.802Z,10.81
2019-04-26T20:47:55.578Z,10.86
2019-04-26T20:50:23.267Z,10.81
2019-04-26T20:52:53.934Z,10.90
2019-04-26T20:55:30.248Z,10.82
2019-04-26T20:57:54.940Z,10.83
2019-04-26T21:00:27.872Z,10.86
2019-04-26T21:03:01.342Z,10.92
2019-04-26T21:05:45.390Z,10.84
2019-04-26T21:08:04.312Z,10.92
2019-04-26T21:10:36.026Z,10.86
2019-04-26T21:13:05.747Z,10.83
2019-04-26T21:15:51.970Z,10.52
2019-04-26T21:18:12.352Z,10.64
2019-04-26T21:20:42.632Z,10.69
2019-04-26T21:23:15.255Z,10.71
2019-04-26T21:26:14.763Z,10.80
2019-04-26T21:28:55.703Z,10.81
2019-04-26T21:32:02.324Z,10.86
2019-04-26T21:34:37.287Z,10.94
2019-04-26T21:37:35.787Z,10.89
2019-04-26T21:40:16.900Z,10.91
2019-04-26T21:42:47.401Z,10.85
2019-04-26T21:45:21.730Z,10.80
2019-04-26T21:47:49.010Z,10.83
2019-04-26T21:50:18.782Z,10.85
2019-04-26T21:52:47.958Z,10.83
2019-04-26T21:55:17.147Z,10.97
2019-04-26T21:57:46.370Z,10.96
2019-04-26T22:00:28.894Z,10.87
2019-04-26T22:02:58.076Z,10.78
2019-04-26T22:05:27.263Z,10.58
2019-04-26T22:07:58.839Z,10.56
2019-04-26T22:10:46.259Z,10.45
2019-04-26T22:13:23.795Z,10.55
2019-04-26T22:16:29.315Z,10.51
2019-04-26T22:18:57.782Z,10.61
2019-04-26T22:21:38.826Z,10.58
2019-04-26T22:24:36.726Z,10.37
2019-04-26T22:27:07.050Z,10.51
2019-04-26T22:29:38.266Z,10.49
2019-04-26T22:32:11.582Z,10.58
2019-04-26T22:34:42.790Z,10.37
2019-04-26T22:37:12.967Z,10.47
2019-04-26T22:39:44.327Z,10.34
2019-04-26T22:42:14.583Z,10.41
2019-04-26T22:44:50.166Z,10.23
2019-04-26T22:47:45.665Z,10.28
2019-04-26T22:50:20.825Z,10.19
2019-04-26T22:52:51.563Z,10.09
2019-04-26T22:55:24.151Z,9.96
2019-04-26T22:57:50.747Z,10.02
2019-04-26T23:00:25.573Z,9.96
2019-04-26T23:02:58.084Z,9.99
2019-04-26T23:05:30.683Z,10.01
2019-04-26T23:07:59.344Z,9.94
2019-04-26T23:10:37.140Z,9.94
2019-04-26T23:13:13.235Z,10.03
2019-04-26T23:16:08.310Z,9.96
2019-04-26T23:18:53.798Z,9.93
2019-04-26T23:21:35.785Z,9.85
2019-04-26T23:24:05.489Z,9.58
2019-04-26T23:26:37.495Z,9.78
2019-04-26T23:29:15.710Z,9.82
2019-04-26T23:31:41.587Z,9.90
2019-04-26T23:34:11.638Z,9.86
2019-04-26T23:36:49.065Z,9.83
2019-04-26T23:39:15.878Z,9.85
2019-04-26T23:41:45.587Z,10.02
2019-04-26T23:44:15.721Z,9.92
2019-04-26T23:46:45.184Z,9.91
2019-04-26T23:49:19.276Z,10.00
2019-04-26T23:51:46.449Z,10.00
2019-04-26T23:54:16.533Z,10.03
2019-04-26T23:56:47.741Z,10.12
2019-04-26T23:59:20.724Z,10.03
